Time;durP1;ratioP1;P1;durP2;ratioP2;P2;SDS_P1;SDS_P2;PMS_P1;PMS_P2;Temp;Humidity;BMP_temperature;BMP_pressure;BME280_temperature;BME280_humidity;BME280_pressure;Samples;Min_cycle;Max_cycle;Signal;HPM_P1;HPM_P2
2021/01/30 00:00:39;;;;;;;0.68;0.55;;;;;;;;;;5073988;28;20205;-62
2021/01/30 00:03:06;;;;;;;0.63;0.30;;;;;;;;;;5066371;28;20187;-62
2021/01/30 00:05:33;;;;;;;1.20;0.60;;;;;;;;;;5061476;28;20206;-62
2021/01/30 00:07:59;;;;;;;0.30;0.30;;;;;;;;;;5056723;28;20183;-61
2021/01/30 00:10:25;;;;;;;0.70;0.70;;;;;;;;;;5074481;28;20466;-61
2021/01/30 00:12:51;;;;;;;0.35;0.35;;;;;;;;;;5072266;28;20186;-61
2021/01/30 00:15:20;;;;;;;0.88;0.60;;;;;;;;;;5064564;28;20179;-61
2021/01/30 00:17:46;;;;;;;0.55;0.40;;;;;;;;;;5056445;28;20734;-61
2021/01/30 00:20:13;;;;;;;0.65;0.50;;;;;;;;;;5072615;28;20194;-61
2021/01/30 00:22:39;;;;;;;0.93;0.40;;;;;;;;;;5072351;28;20182;-61
2021/01/30 00:25:06;;;;;;;0.77;0.47;;;;;;;;;;5073280;28;20277;-61
2021/01/30 00:27:32;;;;;;;0.50;0.50;;;;;;;;;;5063279;28;20189;-61
2021/01/30 00:29:58;;;;;;;1.13;0.70;;;;;;;;;;5071216;28;20174;-61
2021/01/30 00:32:24;;;;;;;0.80;0.50;;;;;;;;;;5056596;28;20228;-61
2021/01/30 00:34:50;;;;;;;1.20;0.50;;;;;;;;;;5063798;28;20256;-61
2021/01/30 00:37:23;;;;;;;0.52;0.52;;;;;;;;;;5061395;28;20179;-61
2021/01/30 00:39:50;;;;;;;0.43;0.43;;;;;;;;;;5058896;28;20202;-62
2021/01/30 00:42:17;;;;;;;0.50;0.50;;;;;;;;;;5054979;28;20617;-61
2021/01/30 00:44:43;;;;;;;0.32;0.32;;;;;;;;;;5072743;28;20202;-61
2021/01/30 00:47:10;;;;;;;0.40;0.40;;;;;;;;;;5069888;28;20182;-61
2021/01/30 00:49:36;;;;;;;0.60;0.60;;;;;;;;;;5060432;28;20182;-61
2021/01/30 00:52:02;;;;;;;0.75;0.43;;;;;;;;;;5059152;28;20549;-61
2021/01/30 00:54:28;;;;;;;0.38;0.38;;;;;;;;;;5056254;28;20195;-61
2021/01/30 00:56:55;;;;;;;0.52;0.47;;;;;;;;;;5053175;28;20258;-61
2021/01/30 00:59:21;;;;;;;0.40;0.40;;;;;;;;;;5070918;28;20507;-60
2021/01/30 01:01:49;;;;;;;0.52;0.40;;;;;;;;;;5070977;28;20251;-61
2021/01/30 01:04:15;;;;;;;0.75;0.50;;;;;;;;;;5055076;28;20230;-61
2021/01/30 01:06:41;;;;;;;0.40;0.40;;;;;;;;;;5052885;28;20515;-61
2021/01/30 01:09:08;;;;;;;0.47;0.38;;;;;;;;;;5054193;28;20232;-61
2021/01/30 01:11:35;;;;;;;1.08;0.60;;;;;;;;;;5073102;28;20265;-60
2021/01/30 01:14:01;;;;;;;0.43;0.35;;;;;;;;;;5068862;28;20183;-60
2021/01/30 01:16:27;;;;;;;0.43;0.30;;;;;;;;;;5063755;28;20182;-60
2021/01/30 01:18:53;;;;;;;0.65;0.40;;;;;;;;;;5057125;28;20198;-60
2021/01/30 01:21:19;;;;;;;0.55;0.55;;;;;;;;;;5063646;28;20213;-60
2021/01/30 01:23:45;;;;;;;0.63;0.50;;;;;;;;;;5068679;28;20171;-60
2021/01/30 01:26:13;;;;;;;0.77;0.32;;;;;;;;;;5052251;28;20435;-60
2021/01/30 01:28:39;;;;;;;0.57;0.35;;;;;;;;;;5053111;28;20191;-60
2021/01/30 01:31:05;;;;;;;0.45;0.45;;;;;;;;;;5053015;28;20186;-61
2021/01/30 01:33:31;;;;;;;1.13;0.30;;;;;;;;;;5060776;28;20434;-61
2021/01/30 01:35:58;;;;;;;0.50;0.40;;;;;;;;;;5058213;28;20210;-61
2021/01/30 01:38:24;;;;;;;0.20;0.20;;;;;;;;;;5059585;28;20244;-61
2021/01/30 01:40:50;;;;;;;0.43;0.40;;;;;;;;;;5072328;28;20182;-61
2021/01/30 01:43:18;;;;;;;0.32;0.28;;;;;;;;;;5061339;28;20470;-61
2021/01/30 01:45:51;;;;;;;0.30;0.30;;;;;;;;;;5052753;28;20263;-61
2021/01/30 01:48:23;;;;;;;0.63;0.30;;;;;;;;;;5059385;28;20767;-61
2021/01/30 01:50:50;;;;;;;0.32;0.32;;;;;;;;;;5052124;28;20198;-61
2021/01/30 01:53:19;;;;;;;0.32;0.32;;;;;;;;;;5064684;28;20194;-61
2021/01/30 01:55:49;;;;;;;0.40;0.35;;;;;;;;;;5063504;28;20170;-61
2021/01/30 01:58:16;;;;;;;0.45;0.30;;;;;;;;;;5056030;28;20222;-61
2021/01/30 02:00:44;;;;;;;0.40;0.40;;;;;;;;;;5052421;28;20194;-61
2021/01/30 02:03:11;;;;;;;0.38;0.38;;;;;;;;;;5056008;28;20179;-61
2021/01/30 02:05:38;;;;;;;0.45;0.40;;;;;;;;;;5070622;28;20210;-61
2021/01/30 02:08:06;;;;;;;0.32;0.32;;;;;;;;;;5068009;28;20439;-61
2021/01/30 02:10:37;;;;;;;0.30;0.20;;;;;;;;;;5064033;28;20183;-61
2021/01/30 02:13:05;;;;;;;0.43;0.40;;;;;;;;;;5055837;28;20210;-61
2021/01/30 02:15:31;;;;;;;0.40;0.40;;;;;;;;;;5067128;28;20206;-61
2021/01/30 02:18:03;;;;;;;0.30;0.30;;;;;;;;;;5060858;28;20187;-61
2021/01/30 02:20:29;;;;;;;0.47;0.47;;;;;;;;;;5071903;28;20446;-61
2021/01/30 02:22:58;;;;;;;0.30;0.30;;;;;;;;;;5075027;28;20248;-60
2021/01/30 02:25:33;;;;;;;0.35;0.20;;;;;;;;;;5067663;28;20317;-60
2021/01/30 02:27:59;;;;;;;0.30;0.30;;;;;;;;;;5065732;28;20170;-60
2021/01/30 02:30:34;;;;;;;0.75;0.40;;;;;;;;;;5056466;28;20710;-60
2021/01/30 02:33:00;;;;;;;0.40;0.40;;;;;;;;;;5059000;28;20198;-60
2021/01/30 02:35:26;;;;;;;0.40;0.25;;;;;;;;;;5056067;28;20191;-60
2021/01/30 02:38:05;;;;;;;0.10;0.10;;;;;;;;;;5067310;28;20312;-60
2021/01/30 02:40:35;;;;;;;0.30;0.30;;;;;;;;;;5076054;28;20166;-60
2021/01/30 02:43:04;;;;;;;0.50;0.30;;;;;;;;;;5056346;28;20457;-60
2021/01/30 02:45:32;;;;;;;0.35;0.30;;;;;;;;;;5065552;28;20206;-60
2021/01/30 02:48:18;;;;;;;0.20;0.20;;;;;;;;;;5067869;28;20186;-60
2021/01/30 02:50:50;;;;;;;0.30;0.30;;;;;;;;;;5070429;28;20186;-60
2021/01/30 02:53:19;;;;;;;0.50;0.50;;;;;;;;;;5059284;28;20194;-60
2021/01/30 02:55:45;;;;;;;0.73;0.30;;;;;;;;;;5063868;28;20213;-60
2021/01/30 02:58:13;;;;;;;0.47;0.32;;;;;;;;;;5072097;28;20194;-60
2021/01/30 03:00:40;;;;;;;0.22;0.22;;;;;;;;;;5055907;28;20248;-60
2021/01/30 03:03:06;;;;;;;0.30;0.30;;;;;;;;;;5060792;28;20210;-61
2021/01/30 03:05:32;;;;;;;0.20;0.20;;;;;;;;;;5055214;28;20529;-60
2021/01/30 03:08:14;;;;;;;0.45;0.45;;;;;;;;;;5055955;28;20183;-61
2021/01/30 03:10:59;;;;;;;0.10;0.10;;;;;;;;;;5056068;28;20175;-61
2021/01/30 03:13:30;;;;;;;0.10;0.10;;;;;;;;;;5056903;28;20601;-61
2021/01/30 03:15:59;;;;;;;1.08;0.20;;;;;;;;;;5074336;28;20553;-61
2021/01/30 03:18:29;;;;;;;0.25;0.25;;;;;;;;;;5066338;28;20194;-61
2021/01/30 03:20:55;;;;;;;0.28;0.20;;;;;;;;;;5068263;28;20198;-62
2021/01/30 03:23:22;;;;;;;0.30;0.20;;;;;;;;;;5073677;28;20231;-62
2021/01/30 03:25:48;;;;;;;0.35;0.30;;;;;;;;;;5073494;28;20277;-62
2021/01/30 03:28:14;;;;;;;0.20;0.20;;;;;;;;;;5070507;28;20182;-62
2021/01/30 03:30:40;;;;;;;0.20;0.20;;;;;;;;;;5054788;28;20179;-62
2021/01/30 03:33:07;;;;;;;0.45;0.40;;;;;;;;;;5059205;28;20174;-61
2021/01/30 03:35:34;;;;;;;0.40;0.20;;;;;;;;;;5055243;28;20179;-61
2021/01/30 03:38:00;;;;;;;0.13;0.13;;;;;;;;;;5064849;28;20198;-61
2021/01/30 03:40:26;;;;;;;0.10;0.10;;;;;;;;;;5073803;28;20324;-62
2021/01/30 03:42:52;;;;;;;0.17;0.17;;;;;;;;;;5074479;28;20490;-62
2021/01/30 03:45:22;;;;;;;0.22;0.20;;;;;;;;;;5073054;28;20477;-62
2021/01/30 03:47:48;;;;;;;0.73;0.30;;;;;;;;;;5068556;28;20582;-62
2021/01/30 03:50:14;;;;;;;0.20;0.20;;;;;;;;;;5060629;28;20262;-62
2021/01/30 03:52:40;;;;;;;0.30;0.30;;;;;;;;;;5057005;28;20620;-61
2021/01/30 03:55:07;;;;;;;0.15;0.15;;;;;;;;;;5068879;28;20202;-62
2021/01/30 03:57:33;;;;;;;0.22;0.20;;;;;;;;;;5067428;28;20233;-62
2021/01/30 03:59:59;;;;;;;0.20;0.20;;;;;;;;;;5069897;28;20225;-62
2021/01/30 04:02:25;;;;;;;0.22;0.22;;;;;;;;;;5070154;28;20249;-62
2021/01/30 04:04:51;;;;;;;0.20;0.20;;;;;;;;;;5056110;28;20267;-61
2021/01/30 04:07:17;;;;;;;0.30;0.20;;;;;;;;;;5054569;28;20175;-62
2021/01/30 04:09:43;;;;;;;0.13;0.13;;;;;;;;;;5059380;28;20572;-62
2021/01/30 04:12:09;;;;;;;0.20;0.20;;;;;;;;;;5074408;28;20552;-62
2021/01/30 04:14:35;;;;;;;0.20;0.20;;;;;;;;;;5063222;28;20194;-61
2021/01/30 04:17:02;;;;;;;0.20;0.20;;;;;;;;;;5057742;28;20191;-61
2021/01/30 04:19:28;;;;;;;0.47;0.30;;;;;;;;;;5064545;28;20202;-62
2021/01/30 04:21:54;;;;;;;0.13;0.13;;;;;;;;;;5053344;28;20187;-61
2021/01/30 04:24:20;;;;;;;0.50;0.45;;;;;;;;;;5061304;28;20210;-61
2021/01/30 04:26:47;;;;;;;0.30;0.20;;;;;;;;;;5073181;28;20185;-62
2021/01/30 04:29:13;;;;;;;0.20;0.20;;;;;;;;;;5064804;28;20187;-62
2021/01/30 04:31:39;;;;;;;0.28;0.20;;;;;;;;;;5054404;28;20183;-62
2021/01/30 04:34:05;;;;;;;0.43;0.38;;;;;;;;;;5063784;28;20183;-62
2021/01/30 04:36:31;;;;;;;0.30;0.22;;;;;;;;;;5073069;28;20568;-62
2021/01/30 04:38:57;;;;;;;0.10;0.10;;;;;;;;;;5071662;28;20190;-62
2021/01/30 04:41:40;;;;;;;0.10;0.10;;;;;;;;;;5073786;28;20600;-62
2021/01/30 04:44:10;;;;;;;0.10;0.10;;;;;;;;;;5067543;28;20191;-62
2021/01/30 04:46:42;;;;;;;0.65;0.30;;;;;;;;;;5057594;28;20257;-61
2021/01/30 04:49:20;;;;;;;0.35;0.20;;;;;;;;;;5062355;28;20624;-62
2021/01/30 04:51:46;;;;;;;0.10;0.10;;;;;;;;;;5067284;28;20179;-62
2021/01/30 04:54:18;;;;;;;0.20;0.20;;;;;;;;;;5059725;28;20289;-62
2021/01/30 04:57:01;;;;;;;0.20;0.20;;;;;;;;;;5072788;28;20174;-62
2021/01/30 04:59:46;;;;;;;0.32;0.32;;;;;;;;;;5069874;28;20189;-64
2021/01/30 05:02:25;;;;;;;0.20;0.10;;;;;;;;;;5072456;28;20259;-64
2021/01/30 05:04:53;;;;;;;0.30;0.30;;;;;;;;;;5060736;28;20194;-64
2021/01/30 05:07:25;;;;;;;0.20;0.20;;;;;;;;;;5070504;28;20182;-64
2021/01/30 05:10:05;;;;;;;0.25;0.20;;;;;;;;;;5072649;28;20188;-63
2021/01/30 05:12:31;;;;;;;0.20;0.20;;;;;;;;;;5069579;28;20201;-63
2021/01/30 05:15:01;;;;;;;0.13;0.13;;;;;;;;;;5052757;28;20546;-63
2021/01/30 05:17:31;;;;;;;0.20;0.20;;;;;;;;;;5057550;28;20178;-64
2021/01/30 05:20:01;;;;;;;0.20;0.20;;;;;;;;;;5060381;28;20216;-64
2021/01/30 05:22:33;;;;;;;0.20;0.20;;;;;;;;;;5072350;28;20264;-64
2021/01/30 05:24:59;;;;;;;0.20;0.20;;;;;;;;;;5070392;28;20214;-63
2021/01/30 05:27:57;;;;;;;0.10;0.10;;;;;;;;;;5067617;28;20187;-64
2021/01/30 05:30:32;;;;;;;0.20;0.20;;;;;;;;;;5019473;28;20518;-63
2021/01/30 05:33:21;;;;;;;0.68;0.25;;;;;;;;;;5067713;28;20209;-63
2021/01/30 05:35:52;;;;;;;0.70;0.30;;;;;;;;;;5069965;28;20219;-62
2021/01/30 05:38:28;;;;;;;0.55;0.35;;;;;;;;;;5072305;28;20186;-62
2021/01/30 05:40:59;;;;;;;0.60;0.32;;;;;;;;;;5072199;28;20554;-62
2021/01/30 05:43:44;;;;;;;0.80;0.30;;;;;;;;;;5073135;28;20179;-62
2021/01/30 05:46:17;;;;;;;0.30;0.30;;;;;;;;;;5057645;28;20217;-62
2021/01/30 05:48:45;;;;;;;0.85;0.30;;;;;;;;;;5071389;28;20554;-62
2021/01/30 05:51:18;;;;;;;1.17;0.28;;;;;;;;;;5060452;28;20225;-61
2021/01/30 05:53:45;;;;;;;0.82;0.20;;;;;;;;;;5060188;28;20476;-62
2021/01/30 05:56:11;;;;;;;0.38;0.38;;;;;;;;;;5064149;28;20187;-62
2021/01/30 05:58:40;;;;;;;0.30;0.20;;;;;;;;;;5069743;28;20307;-62
2021/01/30 06:01:24;;;;;;;0.43;0.30;;;;;;;;;;5060684;28;20202;-62
2021/01/30 06:03:56;;;;;;;2.85;0.32;;;;;;;;;;5064360;28;20217;-61
2021/01/30 06:06:23;;;;;;;0.32;0.30;;;;;;;;;;5057513;28;20260;-62
2021/01/30 06:08:56;;;;;;;1.13;0.50;;;;;;;;;;5062957;28;20221;-54
2021/01/30 06:11:22;;;;;;;3.17;0.40;;;;;;;;;;5076466;28;20185;-62
2021/01/30 06:13:59;;;;;;;0.47;0.30;;;;;;;;;;5074313;28;20186;-61
2021/01/30 06:16:39;;;;;;;0.57;0.40;;;;;;;;;;5056359;28;20262;-61
2021/01/30 06:19:24;;;;;;;0.50;0.40;;;;;;;;;;5063029;28;20202;-62
2021/01/30 06:22:07;;;;;;;0.65;0.50;;;;;;;;;;5068976;28;20633;-61
2021/01/30 06:24:34;;;;;;;1.35;0.60;;;;;;;;;;5057130;28;20223;-61
2021/01/30 06:27:08;;;;;;;1.70;0.55;;;;;;;;;;5056281;28;20171;-61
2021/01/30 06:29:38;;;;;;;2.15;0.70;;;;;;;;;;5056429;28;20182;-61
2021/01/30 06:32:06;;;;;;;0.60;0.60;;;;;;;;;;5056301;28;20202;-61
2021/01/30 06:34:34;;;;;;;1.02;0.63;;;;;;;;;;5065210;28;20194;-61
2021/01/30 06:37:02;;;;;;;0.70;0.70;;;;;;;;;;5067414;28;20266;-61
2021/01/30 06:39:31;;;;;;;0.60;0.60;;;;;;;;;;5056194;28;20190;-61
2021/01/30 06:42:01;;;;;;;0.60;0.60;;;;;;;;;;5056144;28;20494;-61
2021/01/30 06:44:30;;;;;;;1.05;0.60;;;;;;;;;;5055627;28;20207;-60
2021/01/30 06:47:01;;;;;;;0.85;0.70;;;;;;;;;;5070151;28;20178;-60
2021/01/30 06:49:32;;;;;;;0.50;0.50;;;;;;;;;;5070619;28;20182;-60
2021/01/30 06:52:17;;;;;;;0.60;0.60;;;;;;;;;;5063724;28;20233;-61
2021/01/30 06:54:43;;;;;;;1.38;0.80;;;;;;;;;;5056287;28;20175;-60
2021/01/30 06:57:15;;;;;;;0.82;0.77;;;;;;;;;;5066909;28;20191;-61
2021/01/30 06:59:52;;;;;;;0.85;0.80;;;;;;;;;;5067100;28;20228;-61
2021/01/30 07:02:21;;;;;;;0.93;0.68;;;;;;;;;;5068927;28;20178;-61
2021/01/30 07:04:57;;;;;;;0.98;0.88;;;;;;;;;;5059734;28;20214;-61
2021/01/30 07:07:27;;;;;;;1.55;0.65;;;;;;;;;;5059067;28;20224;-61
2021/01/30 07:10:12;;;;;;;1.52;0.73;;;;;;;;;;5063962;28;20186;-61
2021/01/30 07:12:38;;;;;;;2.30;0.98;;;;;;;;;;5074908;28;20182;-61
2021/01/30 07:15:07;;;;;;;3.53;0.88;;;;;;;;;;5068424;28;20191;-61
2021/01/30 07:18:00;;;;;;;2.22;1.00;;;;;;;;;;5073943;28;20186;-61
2021/01/30 07:20:29;;;;;;;0.88;0.82;;;;;;;;;;5064144;28;20301;-61
2021/01/30 07:23:00;;;;;;;1.95;0.70;;;;;;;;;;5074457;28;20185;-61
2021/01/30 07:25:32;;;;;;;1.95;0.90;;;;;;;;;;5055885;28;20215;-61
2021/01/30 07:28:17;;;;;;;2.35;0.95;;;;;;;;;;5054735;28;20689;-65
2021/01/30 07:31:09;;;;;;;1.88;0.93;;;;;;;;;;5071478;28;20182;-61
2021/01/30 07:33:53;;;;;;;1.00;0.90;;;;;;;;;;5059200;28;20195;-61
2021/01/30 07:36:22;;;;;;;3.13;0.98;;;;;;;;;;5074236;28;20632;-61
2021/01/30 07:38:52;;;;;;;2.63;0.77;;;;;;;;;;5071547;28;20191;-61
2021/01/30 07:41:25;;;;;;;1.20;1.00;;;;;;;;;;5075153;28;20193;-61
2021/01/30 07:43:54;;;;;;;0.93;0.90;;;;;;;;;;5064986;28;20178;-61
2021/01/30 07:46:24;;;;;;;1.48;1.00;;;;;;;;;;5067055;28;20217;-61
2021/01/30 07:48:52;;;;;;;3.28;0.93;;;;;;;;;;5058393;28;20299;-61
2021/01/30 07:51:21;;;;;;;6.20;1.17;;;;;;;;;;5068633;28;20309;-60
2021/01/30 07:53:48;;;;;;;1.48;1.00;;;;;;;;;;5056763;28;20641;-58
2021/01/30 07:56:19;;;;;;;3.63;1.20;;;;;;;;;;5069465;28;20464;-58
2021/01/30 07:58:49;;;;;;;1.48;1.05;;;;;;;;;;5053877;28;20179;-61
2021/01/30 08:01:17;;;;;;;1.63;1.52;;;;;;;;;;5054633;28;20201;-69
2021/01/30 08:03:54;;;;;;;1.90;1.20;;;;;;;;;;5064687;28;20182;-58
2021/01/30 08:06:23;;;;;;;1.75;1.10;;;;;;;;;;5073969;28;20678;-58
2021/01/30 08:08:52;;;;;;;1.55;1.00;;;;;;;;;;5060218;28;20224;-57
2021/01/30 08:11:22;;;;;;;3.65;1.42;;;;;;;;;;5053299;28;20183;-57
2021/01/30 08:14:09;;;;;;;1.85;1.10;;;;;;;;;;5057152;28;20257;-57
2021/01/30 08:16:46;;;;;;;2.13;1.10;;;;;;;;;;5069625;28;20273;-58
2021/01/30 08:19:14;;;;;;;2.75;1.08;;;;;;;;;;5065205;28;20591;-60
2021/01/30 08:21:40;;;;;;;4.43;1.30;;;;;;;;;;5069996;28;20191;-59
2021/01/30 08:24:19;;;;;;;4.32;1.10;;;;;;;;;;5053581;28;20216;-51
2021/01/30 08:26:54;;;;;;;2.97;1.45;;;;;;;;;;5063442;28;20212;-53
2021/01/30 08:29:28;;;;;;;2.17;1.10;;;;;;;;;;5056909;28;20187;-54
2021/01/30 08:32:00;;;;;;;3.38;1.10;;;;;;;;;;5055704;28;20174;-55
2021/01/30 08:34:27;;;;;;;8.00;1.48;;;;;;;;;;5065711;28;20182;-60
2021/01/30 08:36:58;;;;;;;4.28;1.25;;;;;;;;;;5073245;28;20798;-60
2021/01/30 08:39:26;;;;;;;5.85;1.42;;;;;;;;;;5071461;28;20186;-61
2021/01/30 08:42:12;;;;;;;2.95;1.23;;;;;;;;;;5060456;28;20179;-63
2021/01/30 08:44:43;;;;;;;2.38;1.20;;;;;;;;;;5058398;28;20209;-60
2021/01/30 08:47:15;;;;;;;1.30;1.17;;;;;;;;;;5062855;28;20237;-56
2021/01/30 08:49:41;;;;;;;3.83;1.50;;;;;;;;;;5068885;28;20202;-54
2021/01/30 08:52:13;;;;;;;2.17;1.17;;;;;;;;;;5073618;28;20225;-59
2021/01/30 08:54:43;;;;;;;4.90;1.50;;;;;;;;;;5058946;28;20190;-55
2021/01/30 08:57:28;;;;;;;4.82;1.42;;;;;;;;;;5070064;28;20183;-50
2021/01/30 08:59:54;;;;;;;1.48;1.35;;;;;;;;;;5067611;28;20194;-51
2021/01/30 09:02:29;;;;;;;1.83;1.40;;;;;;;;;;5067744;28;20576;-61
2021/01/30 09:05:01;;;;;;;2.20;1.60;;;;;;;;;;5068446;28;20197;-59
2021/01/30 09:07:48;;;;;;;3.80;1.80;;;;;;;;;;5062747;28;20179;-61
2021/01/30 09:10:25;;;;;;;1.67;1.50;;;;;;;;;;5058326;28;20178;-56
2021/01/30 09:13:23;;;;;;;3.70;1.60;;;;;;;;;;5058879;28;20207;-50
2021/01/30 09:15:49;;;;;;;2.25;1.80;;;;;;;;;;5029635;28;20249;-62
2021/01/30 09:18:24;;;;;;;2.38;1.90;;;;;;;;;;5058505;28;20194;-66
2021/01/30 09:20:53;;;;;;;2.35;1.95;;;;;;;;;;5059316;28;20178;-58
2021/01/30 09:23:38;;;;;;;2.45;1.90;;;;;;;;;;5064791;28;20194;-56
2021/01/30 09:26:04;;;;;;;2.40;1.58;;;;;;;;;;5060465;28;20214;-54
2021/01/30 09:28:31;;;;;;;4.55;1.80;;;;;;;;;;5055201;28;20178;-52
2021/01/30 09:31:00;;;;;;;2.17;1.80;;;;;;;;;;5056573;28;20183;-52
2021/01/30 09:33:34;;;;;;;2.08;1.48;;;;;;;;;;5065267;28;20490;-53
2021/01/30 09:36:07;;;;;;;1.73;1.58;;;;;;;;;;5060519;28;20190;-56
2021/01/30 09:38:37;;;;;;;1.75;1.52;;;;;;;;;;5060700;28;20179;-60
2021/01/30 09:41:06;;;;;;;2.47;1.58;;;;;;;;;;5065324;28;20197;-60
2021/01/30 09:43:32;;;;;;;5.05;1.80;;;;;;;;;;5057124;28;20224;-60
2021/01/30 09:45:58;;;;;;;5.05;1.50;;;;;;;;;;5067977;28;20202;-59
2021/01/30 09:48:24;;;;;;;2.42;1.52;;;;;;;;;;5059719;28;20435;-59
2021/01/30 09:50:53;;;;;;;3.47;1.35;;;;;;;;;;5063429;28;20187;-59
2021/01/30 09:53:41;;;;;;;5.40;1.88;;;;;;;;;;5063039;28;20237;-60
2021/01/30 09:56:09;;;;;;;3.97;1.70;;;;;;;;;;5066532;28;20453;-59
2021/01/30 09:58:37;;;;;;;3.83;1.75;;;;;;;;;;5060147;28;20178;-59
2021/01/30 10:01:07;;;;;;;4.80;1.50;;;;;;;;;;5056094;28;20183;-60
2021/01/30 10:03:35;;;;;;;8.93;1.85;;;;;;;;;;5058787;28;20312;-59
2021/01/30 10:06:09;;;;;;;6.70;2.10;;;;;;;;;;5059739;28;20207;-59
2021/01/30 10:08:35;;;;;;;6.78;1.58;;;;;;;;;;5052677;28;20431;-59
2021/01/30 10:11:03;;;;;;;4.65;1.90;;;;;;;;;;5059709;28;20179;-59
2021/01/30 10:13:29;;;;;;;5.47;1.80;;;;;;;;;;5058291;28;20263;-59
2021/01/30 10:15:56;;;;;;;4.97;2.08;;;;;;;;;;5068586;28;20201;-59
2021/01/30 10:18:23;;;;;;;7.00;1.80;;;;;;;;;;5059262;28;20222;-59
2021/01/30 10:20:56;;;;;;;5.35;1.85;;;;;;;;;;5054845;28;20187;-59
2021/01/30 10:23:33;;;;;;;3.72;1.60;;;;;;;;;;5071465;28;20171;-59
2021/01/30 10:26:13;;;;;;;3.78;1.90;;;;;;;;;;5057368;28;20290;-59
2021/01/30 10:28:50;;;;;;;7.28;2.22;;;;;;;;;;5051467;28;20187;-59
2021/01/30 10:31:18;;;;;;;3.35;2.03;;;;;;;;;;5064330;28;20182;-59
2021/01/30 10:33:46;;;;;;;14.15;1.60;;;;;;;;;;5063445;28;20187;-60
2021/01/30 10:36:13;;;;;;;2.60;1.73;;;;;;;;;;5057608;28;20595;-60
2021/01/30 10:38:39;;;;;;;8.02;1.90;;;;;;;;;;5066121;28;20261;-60
2021/01/30 10:41:06;;;;;;;4.07;1.52;;;;;;;;;;5069715;28;20190;-60
2021/01/30 10:43:37;;;;;;;2.17;1.38;;;;;;;;;;5075639;28;20209;-60
2021/01/30 10:46:08;;;;;;;2.45;1.80;;;;;;;;;;5056686;28;20264;-60
2021/01/30 10:48:37;;;;;;;3.67;1.58;;;;;;;;;;5063675;28;20189;-60
2021/01/30 10:51:07;;;;;;;3.35;1.60;;;;;;;;;;5055461;28;20855;-60
2021/01/30 10:53:34;;;;;;;3.78;1.52;;;;;;;;;;5056303;28;20305;-60
2021/01/30 10:56:11;;;;;;;5.72;1.60;;;;;;;;;;5065595;28;20277;-60
2021/01/30 10:58:37;;;;;;;5.32;1.98;;;;;;;;;;5069217;28;20265;-60
2021/01/30 11:01:03;;;;;;;5.78;1.70;;;;;;;;;;5055685;28;20278;-60
2021/01/30 11:03:43;;;;;;;4.40;1.60;;;;;;;;;;5062085;28;20193;-60
2021/01/30 11:06:39;;;;;;;5.88;1.85;;;;;;;;;;5074467;28;20202;-60
2021/01/30 11:09:13;;;;;;;2.05;1.58;;;;;;;;;;5058601;28;20614;-60
2021/01/30 11:11:39;;;;;;;3.08;1.77;;;;;;;;;;5057626;28;20231;-59
2021/01/30 11:14:15;;;;;;;6.90;1.90;;;;;;;;;;5078202;28;20182;-59
2021/01/30 11:16:42;;;;;;;7.68;2.15;;;;;;;;;;5068977;28;20183;-51
2021/01/30 11:19:38;;;;;;;7.50;1.75;;;;;;;;;;5057519;28;20190;-50
2021/01/30 11:22:05;;;;;;;5.22;2.33;;;;;;;;;;5056111;28;20554;-49
2021/01/30 11:24:35;;;;;;;5.53;1.95;;;;;;;;;;5067859;28;20688;-57
2021/01/30 11:27:02;;;;;;;4.70;2.10;;;;;;;;;;5061558;28;20525;-57
2021/01/30 11:29:30;;;;;;;4.38;2.15;;;;;;;;;;5055407;28;20199;-57
2021/01/30 11:31:57;;;;;;;4.10;1.75;;;;;;;;;;5065219;28;20178;-58
2021/01/30 11:34:25;;;;;;;4.38;1.63;;;;;;;;;;5060810;28;20206;-57
2021/01/30 11:36:51;;;;;;;4.53;1.90;;;;;;;;;;5073811;28;20561;-52
2021/01/30 11:39:24;;;;;;;4.35;1.52;;;;;;;;;;5075105;28;20204;-55
2021/01/30 11:41:50;;;;;;;4.35;1.70;;;;;;;;;;5074557;28;20175;-51
2021/01/30 11:44:16;;;;;;;4.18;1.77;;;;;;;;;;5064755;28;20183;-53
2021/01/30 11:46:42;;;;;;;4.68;1.98;;;;;;;;;;5068210;28;20183;-50
2021/01/30 11:49:08;;;;;;;3.30;1.67;;;;;;;;;;5068750;28;20182;-53
2021/01/30 11:51:34;;;;;;;2.88;1.50;;;;;;;;;;5065557;28;20193;-53
2021/01/30 11:54:00;;;;;;;4.10;1.88;;;;;;;;;;5074053;28;20175;-51
2021/01/30 11:56:26;;;;;;;2.17;1.70;;;;;;;;;;5074792;28;20200;-54
2021/01/30 11:58:52;;;;;;;5.53;2.50;;;;;;;;;;5069359;28;20171;-52
2021/01/30 12:01:18;;;;;;;10.52;3.53;;;;;;;;;;5068462;28;20209;-51
2021/01/30 12:03:44;;;;;;;20.85;6.38;;;;;;;;;;5061020;28;20179;-50
2021/01/30 12:06:10;;;;;;;42.83;10.23;;;;;;;;;;5070534;28;20202;-50
2021/01/30 12:08:36;;;;;;;50.83;12.90;;;;;;;;;;5057826;28;20244;-51
2021/01/30 12:11:02;;;;;;;42.40;10.80;;;;;;;;;;5057587;28;20183;-51
2021/01/30 12:13:29;;;;;;;40.58;11.82;;;;;;;;;;5074568;28;20206;-57
2021/01/30 12:15:55;;;;;;;44.10;11.52;;;;;;;;;;5070087;28;20216;-52
2021/01/30 12:18:21;;;;;;;42.35;11.70;;;;;;;;;;5064922;28;20206;-59
2021/01/30 12:20:50;;;;;;;35.47;10.98;;;;;;;;;;5054531;28;20191;-57
2021/01/30 12:23:16;;;;;;;37.80;10.95;;;;;;;;;;5053949;28;20183;-57
2021/01/30 12:25:43;;;;;;;35.83;12.20;;;;;;;;;;5064105;28;20202;-61
2021/01/30 12:28:10;;;;;;;36.30;10.48;;;;;;;;;;5068452;28;20258;-53
2021/01/30 12:30:38;;;;;;;39.83;11.40;;;;;;;;;;5056068;28;20236;-56
2021/01/30 12:33:04;;;;;;;44.70;11.70;;;;;;;;;;5057998;28;20185;-55
2021/01/30 12:35:31;;;;;;;31.88;9.55;;;;;;;;;;5061571;28;20187;-54
2021/01/30 12:37:58;;;;;;;27.65;8.88;;;;;;;;;;5061972;28;20198;-50
2021/01/30 12:40:27;;;;;;;29.77;9.20;;;;;;;;;;5072596;28;20197;-53
2021/01/30 12:42:53;;;;;;;27.67;8.82;;;;;;;;;;5072002;28;20442;-54
2021/01/30 12:45:19;;;;;;;21.67;8.23;;;;;;;;;;5073164;28;20428;-51
2021/01/30 12:47:45;;;;;;;29.60;8.63;;;;;;;;;;5065832;28;20183;-59
2021/01/30 12:50:16;;;;;;;30.35;9.38;;;;;;;;;;5061225;28;20186;-54
2021/01/30 12:52:43;;;;;;;29.55;9.65;;;;;;;;;;5052232;28;20230;-52
2021/01/30 12:55:09;;;;;;;25.73;8.57;;;;;;;;;;5052996;28;20221;-58
2021/01/30 12:57:35;;;;;;;24.83;8.45;;;;;;;;;;5064112;28;20256;-58
2021/01/30 13:00:01;;;;;;;23.30;8.48;;;;;;;;;;5065719;28;20557;-58
2021/01/30 13:02:27;;;;;;;19.85;8.10;;;;;;;;;;5071179;28;20194;-58
2021/01/30 13:04:53;;;;;;;19.63;8.68;;;;;;;;;;5060815;28;20197;-58
2021/01/30 13:07:19;;;;;;;23.20;7.85;;;;;;;;;;5072163;28;20573;-58
2021/01/30 13:09:45;;;;;;;21.48;8.50;;;;;;;;;;5066264;28;20254;-58
2021/01/30 13:12:11;;;;;;;22.92;7.70;;;;;;;;;;5072360;28;20538;-58
2021/01/30 13:14:40;;;;;;;20.50;7.40;;;;;;;;;;5059097;28;20605;-58
2021/01/30 13:17:07;;;;;;;17.13;7.53;;;;;;;;;;5057652;28;20519;-58
2021/01/30 13:19:33;;;;;;;16.75;6.65;;;;;;;;;;5059255;28;20276;-57
2021/01/30 13:21:59;;;;;;;18.75;7.70;;;;;;;;;;5072026;28;20573;-58
2021/01/30 13:24:25;;;;;;;17.73;7.32;;;;;;;;;;5054008;28;20175;-58
2021/01/30 13:26:52;;;;;;;16.52;6.55;;;;;;;;;;5052589;28;20178;-58
2021/01/30 13:29:19;;;;;;;17.80;6.85;;;;;;;;;;5071024;28;20209;-58
2021/01/30 13:31:49;;;;;;;13.43;6.35;;;;;;;;;;5072649;28;20185;-57
2021/01/30 13:34:16;;;;;;;13.73;6.28;;;;;;;;;;5070743;28;20193;-57
2021/01/30 13:36:42;;;;;;;16.02;6.53;;;;;;;;;;5057007;28;20187;-57
2021/01/30 13:39:08;;;;;;;17.35;6.75;;;;;;;;;;5054292;28;20179;-58
2021/01/30 13:41:34;;;;;;;16.73;6.47;;;;;;;;;;5053268;28;20181;-58
2021/01/30 13:44:00;;;;;;;14.60;6.25;;;;;;;;;;5055167;28;20239;-58
2021/01/30 13:46:27;;;;;;;14.63;5.93;;;;;;;;;;5052475;28;20281;-58
2021/01/30 13:48:53;;;;;;;15.05;6.28;;;;;;;;;;5061970;28;20206;-58
2021/01/30 13:51:19;;;;;;;16.42;6.47;;;;;;;;;;5055728;28;20202;-58
2021/01/30 13:53:45;;;;;;;10.07;5.70;;;;;;;;;;5053828;28;20203;-58
2021/01/30 13:56:14;;;;;;;14.75;5.97;;;;;;;;;;5053433;28;20186;-58
2021/01/30 13:58:40;;;;;;;12.60;5.93;;;;;;;;;;5072430;28;20193;-57
2021/01/30 14:01:06;;;;;;;12.35;5.55;;;;;;;;;;5072110;28;20186;-58
2021/01/30 14:03:32;;;;;;;11.40;5.72;;;;;;;;;;5065518;28;20187;-58
2021/01/30 14:05:58;;;;;;;13.27;5.80;;;;;;;;;;5066223;28;20206;-57
2021/01/30 14:08:24;;;;;;;10.63;5.38;;;;;;;;;;5069767;28;20236;-58
2021/01/30 14:10:50;;;;;;;12.40;5.35;;;;;;;;;;5056109;28;20262;-57
2021/01/30 14:13:16;;;;;;;16.42;6.15;;;;;;;;;;5056741;28;20228;-57
2021/01/30 14:15:42;;;;;;;14.35;6.20;;;;;;;;;;5056799;28;20229;-57
2021/01/30 14:18:09;;;;;;;22.25;6.45;;;;;;;;;;5065800;28;20205;-57
2021/01/30 14:20:35;;;;;;;11.73;5.90;;;;;;;;;;5055973;28;20441;-57
2021/01/30 14:23:03;;;;;;;14.10;5.88;;;;;;;;;;5055844;28;20209;-57
2021/01/30 14:25:29;;;;;;;13.80;6.10;;;;;;;;;;5055810;28;20199;-57
2021/01/30 14:27:56;;;;;;;12.40;5.40;;;;;;;;;;5055871;28;20190;-57
2021/01/30 14:30:22;;;;;;;15.07;5.80;;;;;;;;;;5066659;28;20167;-58
2021/01/30 14:32:48;;;;;;;13.15;5.53;;;;;;;;;;5073567;28;20282;-58
2021/01/30 14:35:15;;;;;;;12.48;5.25;;;;;;;;;;5075911;28;20179;-57
2021/01/30 14:37:41;;;;;;;12.82;5.35;;;;;;;;;;5075604;28;20182;-57
2021/01/30 14:40:08;;;;;;;14.13;5.55;;;;;;;;;;5075950;28;20178;-57
2021/01/30 14:42:34;;;;;;;13.48;5.47;;;;;;;;;;5072552;28;20196;-57
2021/01/30 14:45:02;;;;;;;13.00;5.43;;;;;;;;;;5063980;28;20211;-57
2021/01/30 14:47:28;;;;;;;9.43;4.85;;;;;;;;;;5057017;28;20418;-57
2021/01/30 14:49:54;;;;;;;12.02;5.35;;;;;;;;;;5058784;28;20180;-57
2021/01/30 14:52:20;;;;;;;10.57;5.10;;;;;;;;;;5055088;28;20187;-57
2021/01/30 14:54:46;;;;;;;11.75;4.70;;;;;;;;;;5067298;28;20293;-57